Time;durP1;ratioP1;P1;durP2;ratioP2;P2;SDS_P1;SDS_P2;PMS_P1;PMS_P2;Temp;Humidity;BMP_temperature;BMP_pressure;BME280_temperature;BME280_humidity;BME280_pressure;Samples;Min_cycle;Max_cycle;Signal;HPM_P1;HPM_P2
2022/04/20 04:05:17;;;;;;;16.40;9.88;;;;;;;1.79;100.00;100232.44;6525925;26;20099;-89
2022/04/20 04:37:59;;;;;;;13.30;8.70;;;;;;;2.54;100.00;100257.25;6630771;26;20430;-90
2022/04/20 04:49:15;;;;;;;13.95;8.38;;;;;;;3.04;100.00;100263.59;6637953;26;20071;-89
2022/04/20 04:52:33;;;;;;;12.35;8.77;;;;;;;3.22;100.00;100258.47;6630659;26;35145;-89
2022/04/20 04:59:53;;;;;;;11.43;7.90;;;;;;;3.41;100.00;100257.69;6632063;26;20420;-87
2022/04/20 05:02:57;;;;;;;10.70;7.68;;;;;;;3.54;99.87;100263.66;6637607;26;34403;-88
2022/04/20 05:06:00;;;;;;;12.20;7.95;;;;;;;3.57;100.00;100268.69;6632340;26;34497;-88
2022/04/20 05:09:08;;;;;;;11.57;8.00;;;;;;;3.66;100.00;100267.03;6636266;26;34509;-88
2022/04/20 05:12:11;;;;;;;12.18;8.40;;;;;;;3.83;100.00;100273.50;6641630;26;35202;-88
2022/04/20 05:15:15;;;;;;;13.32;9.55;;;;;;;3.99;100.00;100265.84;6632382;26;34244;-89
2022/04/20 05:18:19;;;;;;;14.70;10.10;;;;;;;4.28;98.03;100271.19;6633610;26;35490;-90
2022/04/20 05:21:23;;;;;;;14.10;9.65;;;;;;;4.46;97.47;100267.81;6642994;26;35497;-91
2022/04/20 05:24:28;;;;;;;15.35;10.18;;;;;;;4.51;95.02;100270.91;6617105;26;32945;-89
2022/04/20 05:27:31;;;;;;;15.38;10.52;;;;;;;4.76;94.01;100266.78;6617111;26;32611;-89
2022/04/20 05:30:35;;;;;;;15.55;10.18;;;;;;;4.97;92.52;100272.81;6618147;26;32858;-88
2022/04/20 05:33:39;;;;;;;17.70;11.48;;;;;;;5.00;90.94;100272.50;6609613;26;32743;-89
2022/04/20 05:43:27;;;;;;;17.83;11.02;;;;;;;5.31;92.29;100280.28;6616097;26;34028;-88
2022/04/20 05:46:32;;;;;;;15.50;10.48;;;;;;;5.78;90.51;100276.69;6634972;26;34500;-88
2022/04/20 05:49:35;;;;;;;13.25;9.77;;;;;;;6.02;87.76;100276.12;6610628;26;33691;-88
2022/04/20 05:52:38;;;;;;;14.98;9.63;;;;;;;6.06;86.05;100278.38;6608566;26;167422;-88
2022/04/20 05:55:41;;;;;;;11.82;8.93;;;;;;;6.04;85.58;100268.81;6635033;26;34680;-88
2022/04/20 05:58:50;;;;;;;13.02;8.93;;;;;;;6.08;86.78;100271.03;6609768;26;32808;-88
2022/04/20 06:01:53;;;;;;;11.65;8.80;;;;;;;6.22;84.83;100263.47;6615975;26;33880;-87
2022/04/20 06:04:57;;;;;;;10.25;8.25;;;;;;;6.20;85.73;100262.78;6626966;26;32994;-88
2022/04/20 06:08:01;;;;;;;9.90;8.38;;;;;;;6.43;84.58;100264.00;6615835;26;33006;-88
2022/04/20 06:11:06;;;;;;;11.25;9.05;;;;;;;6.64;84.85;100258.34;6619107;26;32996;-88
2022/04/20 06:14:09;;;;;;;10.38;8.25;;;;;;;6.84;82.92;100260.81;6620736;26;33161;-88
2022/04/20 06:17:13;;;;;;;10.52;8.13;;;;;;;7.01;80.12;100263.44;6638083;26;34680;-87
2022/04/20 06:20:16;;;;;;;9.88;7.85;;;;;;;7.19;79.20;100262.53;6634300;26;35520;-88
2022/04/20 06:23:22;;;;;;;11.65;8.23;;;;;;;7.39;78.95;100257.78;6634962;26;33672;-87
2022/04/20 06:26:25;;;;;;;9.43;7.62;;;;;;;7.45;79.69;100262.50;6634633;26;33980;-88
2022/04/20 06:29:32;;;;;;;9.90;8.07;;;;;;;7.57;76.41;100255.03;6614383;26;33152;-88
2022/04/20 06:32:38;;;;;;;10.52;8.20;;;;;;;7.76;76.64;100265.50;6634935;26;35388;-88
2022/04/20 06:35:41;;;;;;;11.10;8.07;;;;;;;7.99;77.04;100254.16;6612835;26;33588;-88
2022/04/20 06:38:44;;;;;;;8.30;7.05;;;;;;;8.24;77.02;100255.88;6614524;26;33133;-88
2022/04/20 06:41:48;;;;;;;9.38;6.97;;;;;;;8.45;72.40;100258.09;6634333;26;34141;-88
2022/04/20 06:44:51;;;;;;;7.82;6.43;;;;;;;8.66;72.48;100249.56;6613637;26;33353;-88
2022/04/20 06:47:59;;;;;;;6.55;5.40;;;;;;;8.63;69.02;100242.69;6610722;26;32522;-89
2022/04/20 06:51:03;;;;;;;8.70;5.70;;;;;;;8.61;69.60;100238.50;6632740;26;35200;-90
2022/04/20 07:00:54;;;;;;;5.78;4.68;;;;;;;9.08;64.64;100229.69;6634237;26;34583;-88
2022/04/20 07:03:59;;;;;;;5.45;4.78;;;;;;;9.30;63.33;100228.09;6635986;26;33928;-88
2022/04/20 07:07:02;;;;;;;6.03;4.87;;;;;;;9.41;60.60;100235.78;6621333;26;33554;-88
2022/04/20 07:10:09;;;;;;;5.90;4.87;;;;;;;9.42;61.86;100228.56;6634000;26;34107;-88
2022/04/20 07:13:12;;;;;;;6.15;4.90;;;;;;;9.69;60.78;100228.13;6613912;26;33251;-88
2022/04/20 07:16:15;;;;;;;4.82;4.35;;;;;;;10.03;59.44;100223.37;6634779;26;33721;-88
2022/04/20 07:19:21;;;;;;;4.93;4.43;;;;;;;10.04;57.00;100223.22;6634462;26;34817;-88
2022/04/20 07:22:28;;;;;;;5.28;4.57;;;;;;;10.25;59.68;100224.41;6634749;26;34014;-88
2022/04/20 07:25:38;;;;;;;5.25;4.50;;;;;;;10.39;58.44;100223.69;6614483;26;32592;-88
2022/04/20 07:28:44;;;;;;;4.18;3.75;;;;;;;10.45;57.41;100228.34;6635078;26;34084;-88
2022/04/20 07:31:54;;;;;;;3.97;3.58;;;;;;;10.57;57.78;100220.66;6615422;26;32591;-88
2022/04/20 07:35:01;;;;;;;4.68;3.92;;;;;;;10.28;54.11;100233.00;6614994;26;33028;-88
2022/04/20 07:38:05;;;;;;;4.00;3.03;;;;;;;10.34;53.95;100224.19;6635081;26;34040;-88
2022/04/20 07:41:16;;;;;;;3.28;2.85;;;;;;;10.31;50.96;100227.25;6636892;26;34710;-88
2022/04/20 07:44:25;;;;;;;3.55;3.03;;;;;;;10.51;53.01;100233.00;6634335;26;33677;-89
2022/04/20 07:47:30;;;;;;;4.43;3.37;;;;;;;10.86;52.23;100223.41;6635187;26;34080;-89
2022/04/20 07:50:35;;;;;;;3.20;2.90;;;;;;;11.05;52.87;100222.03;6635536;26;35152;-89
2022/04/20 07:53:41;;;;;;;3.05;2.75;;;;;;;11.36;50.73;100221.03;6614632;26;33913;-89
2022/04/20 07:56:45;;;;;;;4.05;2.80;;;;;;;11.50;47.64;100219.34;6615936;26;34259;-92
2022/04/20 08:00:13;;;;;;;3.28;2.90;;;;;;;11.38;48.56;100223.50;6612788;26;32781;-87
2022/04/20 08:03:22;;;;;;;2.53;2.33;;;;;;;11.40;47.83;100216.91;6563502;27;35161;-89
2022/04/20 08:06:27;;;;;;;2.92;2.53;;;;;;;11.23;47.08;100216.28;6552676;27;34738;-89
2022/04/20 08:09:31;;;;;;;3.05;2.80;;;;;;;11.51;49.25;100216.44;6558275;27;34792;-88
2022/04/20 08:12:36;;;;;;;3.35;3.00;;;;;;;11.39;49.42;100206.34;6581484;27;34920;-88
2022/04/20 08:15:43;;;;;;;4.28;2.90;;;;;;;11.34;48.35;100205.03;6578948;27;34170;-89
2022/04/20 08:18:47;;;;;;;2.92;2.72;;;;;;;11.38;46.73;100207.34;6560713;27;32960;-88
2022/04/20 08:21:55;;;;;;;3.60;2.80;;;;;;;11.64;46.50;100196.06;6585747;27;33663;-88
2022/04/20 08:25:02;;;;;;;3.00;2.80;;;;;;;11.76;46.41;100197.25;6572042;27;32306;-88
2022/04/20 08:28:14;;;;;;;4.43;3.50;;;;;;;11.84;46.64;100188.19;6572836;27;33173;-88
2022/04/20 08:31:25;;;;;;;3.15;2.85;;;;;;;11.84;46.89;100185.50;6617752;26;34360;-89
2022/04/20 08:34:29;;;;;;;4.82;2.80;;;;;;;12.05;48.10;100182.00;6633346;26;33796;-89
2022/04/20 08:37:52;;;;;;;3.30;3.00;;;;;;;12.02;51.13;100178.69;6644424;26;34495;-88
2022/04/20 08:40:59;;;;;;;3.65;2.90;;;;;;;12.15;46.95;100185.25;6646011;26;33937;-89
2022/04/20 08:44:04;;;;;;;3.92;3.15;;;;;;;12.31;46.85;100178.72;6624584;26;32555;-89
2022/04/20 08:47:17;;;;;;;3.35;2.87;;;;;;;12.24;44.96;100181.38;6636358;26;34203;-88
2022/04/20 08:50:20;;;;;;;4.35;2.97;;;;;;;12.48;45.70;100172.03;6629600;26;32531;-88
2022/04/20 08:53:23;;;;;;;3.05;2.83;;;;;;;12.77;44.44;100175.56;6621565;26;34061;-88
2022/04/20 08:59:50;;;;;;;5.18;3.15;;;;;;;12.61;43.24;100172.16;6614484;26;33002;-89
2022/04/20 09:02:58;;;;;;;2.67;2.42;;;;;;;12.05;45.29;100165.81;6634453;26;35418;-89
2022/04/20 09:06:01;;;;;;;3.45;2.67;;;;;;;12.17;44.04;100169.69;6614330;26;32680;-89
2022/04/20 09:09:04;;;;;;;2.87;2.58;;;;;;;12.48;43.33;100169.31;6614021;26;32728;-89
2022/04/20 09:12:14;;;;;;;2.67;2.47;;;;;;;12.36;42.92;100158.22;6615105;26;33280;-89
2022/04/20 09:15:31;;;;;;;3.62;2.70;;;;;;;12.57;44.62;100167.31;6637321;26;34122;-89
2022/04/20 09:18:36;;;;;;;5.75;3.30;;;;;;;12.50;43.61;100161.88;6614183;26;34279;-88
2022/04/20 09:21:43;;;;;;;4.03;3.12;;;;;;;12.69;42.68;100163.03;6633790;26;34975;-88
2022/04/20 09:25:03;;;;;;;3.05;2.83;;;;;;;12.82;43.24;100160.44;6613866;26;32721;-89
2022/04/20 09:28:08;;;;;;;4.30;3.28;;;;;;;13.02;43.97;100154.34;6622213;26;32222;-88
2022/04/20 09:31:17;;;;;;;3.97;3.05;;;;;;;13.27;41.82;100158.22;6636320;26;34089;-88
2022/04/20 09:34:30;;;;;;;5.47;3.00;;;;;;;12.89;43.16;100155.91;6653087;26;34978;-89
2022/04/20 09:37:43;;;;;;;3.12;2.37;;;;;;;13.01;43.49;100160.75;6636768;26;36541;-88
2022/04/20 09:41:04;;;;;;;3.50;2.78;;;;;;;13.30;44.71;100151.59;6615170;26;34665;-88
2022/04/20 09:44:16;;;;;;;3.03;2.83;;;;;;;13.23;41.82;100146.13;6614277;26;34699;-88
2022/04/20 09:50:53;;;;;;;3.53;2.90;;;;;;;13.64;41.19;100133.62;6637197;26;33994;-88
2022/04/20 09:53:57;;;;;;;3.28;2.75;;;;;;;14.19;39.82;100135.19;6615981;26;32638;-88
2022/04/20 09:57:11;;;;;;;2.85;2.42;;;;;;;14.25;37.18;100138.94;6632223;26;34018;-88
2022/04/20 10:00:23;;;;;;;4.43;3.17;;;;;;;14.15;38.52;100133.91;6620132;26;33009;-89
2022/04/20 10:03:34;;;;;;;3.47;2.80;;;;;;;14.37;41.23;100129.13;6638324;26;35177;-89
2022/04/20 10:06:43;;;;;;;3.58;3.25;;;;;;;14.85;41.05;100128.87;6613290;26;35899;-88
2022/04/20 10:09:53;;;;;;;2.75;2.55;;;;;;;15.07;35.86;100131.34;6622143;26;32893;-88
2022/04/20 10:13:04;;;;;;;3.17;2.42;;;;;;;15.27;35.59;100133.97;6617112;26;32654;-88
2022/04/20 10:16:12;;;;;;;3.58;3.00;;;;;;;15.34;37.67;100134.78;6611671;26;32335;-88
2022/04/20 10:19:27;;;;;;;3.15;2.25;;;;;;;14.83;34.05;100130.12;6626131;26;32688;-88
2022/04/20 10:22:41;;;;;;;3.45;2.40;;;;;;;14.20;37.01;100123.28;6629977;26;32737;-88
2022/04/20 10:25:47;;;;;;;2.42;2.22;;;;;;;13.62;34.96;100123.81;6648084;26;33944;-88
2022/04/20 10:29:08;;;;;;;3.75;2.42;;;;;;;13.62;34.98;100121.13;6650049;26;34247;-87
2022/04/20 10:32:22;;;;;;;3.28;2.60;;;;;;;14.25;35.84;100119.97;6620159;26;33247;-88
2022/04/20 10:35:27;;;;;;;2.87;2.58;;;;;;;15.14;39.09;100127.56;6639830;26;34616;-88
2022/04/20 10:38:33;;;;;;;2.20;2.00;;;;;;;15.27;34.60;100120.41;6641734;26;34680;-88
2022/04/20 10:41:38;;;;;;;2.58;2.37;;;;;;;16.02;33.88;100121.47;6628800;26;33382;-88
2022/04/20 10:45:04;;;;;;;2.37;2.10;;;;;;;16.09;30.31;100122.28;6623397;26;33068;-88
2022/04/20 10:48:17;;;;;;;2.20;2.00;;;;;;;16.18;30.32;100122.03;6627684;26;32680;-89
2022/04/20 10:51:24;;;;;;;2.40;2.20;;;;;;;16.94;32.55;100105.44;6628620;26;32110;-88
2022/04/20 10:54:34;;;;;;;3.08;2.20;;;;;;;16.50;28.95;100111.94;6627608;26;33395;-89
2022/04/20 10:57:41;;;;;;;2.58;2.37;;;;;;;15.93;32.18;100109.22;6628125;26;32560;-88
2022/04/20 11:00:47;;;;;;;2.70;1.93;;;;;;;15.43;31.17;100111.78;6640829;26;34557;-89
2022/04/20 11:04:02;;;;;;;2.25;2.03;;;;;;;15.67;30.96;100107.47;6619371;26;32300;-88
2022/04/20 11:07:08;;;;;;;3.92;2.42;;;;;;;15.35;30.50;100103.91;6621186;26;32808;-88
2022/04/20 11:10:13;;;;;;;2.75;2.55;;;;;;;15.90;31.09;100100.69;6625961;26;33651;-89
2022/04/20 11:21:06;;;;;;;4.32;2.85;;;;;;;17.41;27.64;100099.44;6652309;26;35485;-88
2022/04/20 11:28:18;;;;;;;4.50;2.95;;;;;;;15.80;31.47;100096.59;6635139;26;20075;-89
2022/04/20 11:31:26;;;;;;;2.65;2.45;;;;;;;15.40;32.00;100085.94;6638868;26;33800;-89
2022/04/20 11:34:33;;;;;;;3.85;3.42;;;;;;;15.31;33.26;100089.94;6619132;26;33083;-88
2022/04/20 11:37:40;;;;;;;4.30;3.47;;;;;;;16.64;30.99;100082.72;6618315;26;32267;-85
2022/04/20 11:40:47;;;;;;;4.87;3.55;;;;;;;19.19;26.17;100083.06;6637199;26;34575;-86
2022/04/20 11:43:54;;;;;;;3.87;3.30;;;;;;;17.89;26.60;100074.06;6638463;26;34368;-91
2022/04/20 11:47:10;;;;;;;3.15;2.87;;;;;;;17.61;26.11;100074.66;6618192;26;32259;-91
2022/04/20 11:50:25;;;;;;;2.95;2.65;;;;;;;18.88;25.38;100062.50;6617668;26;33788;-87
2022/04/20 11:53:33;;;;;;;4.22;2.95;;;;;;;21.36;22.25;100066.09;6616063;26;34507;-87
2022/04/20 11:56:46;;;;;;;5.85;3.30;;;;;;;22.89;20.48;100060.19;6615242;26;32471;-87
2022/04/20 11:59:58;;;;;;;4.32;3.35;;;;;;;23.31;21.19;100062.84;6635087;26;33663;-87
2022/04/20 12:03:04;;;;;;;3.70;3.40;;;;;;;22.86;21.26;100056.88;6633465;26;33715;-86
2022/04/20 12:06:12;;;;;;;4.35;3.50;;;;;;;23.88;20.30;100061.91;6632596;26;33914;-86
2022/04/20 12:09:24;;;;;;;4.87;4.28;;;;;;;24.21;19.41;100060.53;6613863;26;32697;-87
2022/04/20 12:12:32;;;;;;;4.12;3.15;;;;;;;24.14;19.53;100060.00;6612709;26;32823;-87
2022/04/20 12:15:40;;;;;;;4.32;3.17;;;;;;;25.12;18.81;100055.94;6614821;26;32781;-87
2022/04/20 12:18:49;;;;;;;4.37;3.22;;;;;;;22.84;19.52;100061.84;6634033;26;35461;-87
2022/04/20 12:21:56;;;;;;;4.40;3.97;;;;;;;20.00;23.58;100056.44;6628990;26;32310;-87
2022/04/20 12:25:05;;;;;;;3.90;3.60;;;;;;;22.02;22.16;100056.84;6629536;26;32239;-87
2022/04/20 12:31:41;;;;;;;3.80;3.40;;;;;;;24.05;18.96;100044.34;6620800;26;33703;-87
2022/04/20 12:35:05;;;;;;;4.00;3.60;;;;;;;23.73;19.62;100040.75;6621049;26;33117;-91
2022/04/20 12:38:12;;;;;;;3.78;3.45;;;;;;;23.95;17.89;100042.38;6634056;26;34044;-86
2022/04/20 12:41:47;;;;;;;3.83;3.12;;;;;;;25.34;17.38;100043.75;6616839;26;32745;-87
2022/04/20 12:45:02;;;;;;;5.97;3.85;;;;;;;26.72;16.32;100023.31;6617738;26;32572;-88
2022/04/20 12:48:11;;;;;;;4.57;3.90;;;;;;;24.39;18.99;100048.13;6623460;26;33211;-87
2022/04/20 12:51:22;;;;;;;4.30;3.90;;;;;;;20.69;23.53;100050.72;6625162;26;33899;-87
2022/04/20 12:54:31;;;;;;;4.85;3.97;;;;;;;18.57;24.92;100046.28;6639170;26;34003;-86
2022/04/20 13:05:03;;;;;;;4.60;3.97;;;;;;;18.75;24.87;100047.22;6612497;26;33073;-88
2022/04/20 13:08:14;;;;;;;4.50;3.87;;;;;;;20.39;24.95;100045.59;6625083;26;33070;-87
2022/04/20 13:11:21;;;;;;;4.40;3.90;;;;;;;22.44;19.54;100037.72;6646708;26;35353;-88
2022/04/20 13:14:43;;;;;;;4.62;4.03;;;;;;;25.36;18.08;100033.28;6616215;26;34014;-87
2022/04/20 13:17:51;;;;;;;4.80;4.30;;;;;;;23.44;19.48;100023.91;6637075;26;34074;-87
2022/04/20 13:21:01;;;;;;;4.60;3.90;;;;;;;20.17;22.85;100029.94;6616499;26;32959;-86
2022/04/20 13:24:08;;;;;;;4.70;3.90;;;;;;;18.47;24.21;100032.41;6623032;26;33136;-88
2022/04/20 13:30:46;;;;;;;4.70;4.18;;;;;;;16.81;27.27;100034.88;6613613;26;32323;-88
2022/04/20 13:33:58;;;;;;;5.25;4.68;;;;;;;17.48;25.71;100031.28;6634469;26;34495;-87
2022/04/20 13:37:03;;;;;;;5.22;4.70;;;;;;;16.86;28.78;100035.03;6614115;26;32312;-87
2022/04/20 13:40:12;;;;;;;5.85;4.68;;;;;;;15.90;29.29;100030.13;6633932;26;34776;-88
2022/04/20 13:43:20;;;;;;;8.13;5.30;;;;;;;15.47;30.13;100037.06;6613837;26;32807;-88
2022/04/20 13:46:29;;;;;;;8.60;5.72;;;;;;;15.47;30.45;100030.78;6634777;26;33730;-92
2022/04/20 13:49:42;;;;;;;7.57;5.97;;;;;;;15.35;30.98;100031.47;6634521;26;33632;-88
2022/04/20 13:52:50;;;;;;;6.22;5.30;;;;;;;15.35;30.58;100033.37;6634035;26;33908;-87
2022/04/20 13:55:57;;;;;;;5.45;4.95;;;;;;;15.69;31.06;100040.28;6638847;26;34497;-86
2022/04/20 13:59:08;;;;;;;5.70;5.12;;;;;;;15.43;30.73;100039.38;6615064;26;34994;-86
2022/04/20 14:02:14;;;;;;;5.53;5.03;;;;;;;15.40;30.16;100037.09;6614346;26;33493;-88
2022/04/20 14:05:25;;;;;;;5.47;4.50;;;;;;;18.16;27.33;100030.84;6618238;26;35115;-88
2022/04/20 14:08:33;;;;;;;5.75;4.45;;;;;;;18.48;26.43;100030.50;6624881;26;32850;-87
2022/04/20 14:11:40;;;;;;;4.00;3.45;;;;;;;17.44;26.46;100033.66;6622569;26;32937;-88
2022/04/20 14:14:45;;;;;;;5.70;3.75;;;;;;;17.39;27.59;100028.91;6649710;26;36800;-88
2022/04/20 14:17:56;;;;;;;5.10;3.67;;;;;;;19.99;26.30;100024.75;6622964;26;32509;-88
2022/04/20 14:21:05;;;;;;;5.87;3.72;;;;;;;21.21;22.06;100022.06;6623047;26;32414;-88
2022/04/20 14:24:13;;;;;;;5.47;4.28;;;;;;;22.14;21.07;100010.88;6621942;26;32641;-88
2022/04/20 14:34:39;;;;;;;6.55;4.93;;;;;;;18.69;25.04;100026.31;6634068;26;33890;-89
2022/04/20 14:37:43;;;;;;;;;;;;;;;17.20;27.46;100032.75;6634107;26;33923;-88
2022/04/20 14:40:51;;;;;;;6.10;5.00;;;;;;;16.94;27.51;100037.44;6614259;26;33031;-88
2022/04/20 14:43:59;;;;;;;6.18;5.12;;;;;;;17.27;27.54;100038.09;6613867;26;33801;-88
2022/04/20 14:47:08;;;;;;;7.95;5.62;;;;;;;17.75;25.68;100035.25;6614271;26;33654;-88
2022/04/20 14:50:16;;;;;;;7.37;4.97;;;;;;;19.27;25.08;100030.81;6635531;26;33916;-88
2022/04/20 14:53:25;;;;;;;5.43;4.72;;;;;;;19.72;23.50;100032.78;6634689;26;34075;-87
2022/04/20 14:56:39;;;;;;;6.28;5.30;;;;;;;18.65;24.16;100038.78;6613215;26;32782;-87
2022/04/20 14:59:48;;;;;;;6.93;5.40;;;;;;;16.99;27.10;100036.75;6613507;26;32616;-87
2022/04/20 15:02:56;;;;;;;6.60;5.10;;;;;;;16.38;27.69;100040.31;6613621;26;32904;-87
2022/04/20 15:06:01;;;;;;;6.20;4.65;;;;;;;16.39;28.55;100042.84;6636304;26;34693;-87
2022/04/20 15:09:10;;;;;;;5.47;4.55;;;;;;;15.92;28.03;100042.41;6626264;26;32924;-86
2022/04/20 15:12:19;;;;;;;6.45;4.62;;;;;;;15.60;28.60;100044.28;6642828;26;34392;-87
2022/04/20 15:15:28;;;;;;;4.93;4.12;;;;;;;15.51;28.90;100049.16;6643078;26;34153;-87
2022/04/20 15:18:38;;;;;;;7.55;4.90;;;;;;;15.18;28.39;100050.16;6613863;26;32755;-88
2022/04/20 15:21:48;;;;;;;5.20;4.47;;;;;;;15.08;28.23;100046.25;6615113;26;33275;-89
2022/04/20 15:24:56;;;;;;;7.53;5.07;;;;;;;14.78;29.30;100045.97;6620938;26;33253;-88
2022/04/20 15:28:14;;;;;;;5.30;4.68;;;;;;;14.42;29.65;100042.69;6646283;26;34032;-90
2022/04/20 15:31:23;;;;;;;5.10;4.60;;;;;;;14.43;30.03;100048.91;6645329;26;35393;-89
2022/04/20 15:34:30;;;;;;;7.32;5.30;;;;;;;14.50;29.47;100041.59;6638479;26;33917;-88
2022/04/20 15:37:41;;;;;;;6.22;4.68;;;;;;;14.57;29.85;100050.59;6646134;26;34962;-87
2022/04/20 15:41:00;;;;;;;5.40;4.90;;;;;;;14.65;29.24;100050.34;6634163;26;34998;-87
2022/04/20 15:44:08;;;;;;;5.97;4.80;;;;;;;14.72;28.73;100053.87;6615922;26;34952;-88
2022/04/20 15:47:24;;;;;;;5.10;4.60;;;;;;;14.28;29.96;100049.97;6639053;26;34233;-87
2022/04/20 15:50:37;;;;;;;7.15;5.57;;;;;;;14.30;28.76;100044.34;6615583;26;33333;-87
2022/04/20 15:53:48;;;;;;;6.57;5.15;;;;;;;13.98;29.41;100041.47;6616422;26;33330;-87
2022/04/20 16:00:32;;;;;;;6.85;5.45;;;;;;;13.75;30.28;100047.28;6620707;26;33473;-87
